sensor_id;sensor_type;location;lat;lon;timestamp;P1;durP1;ratioP1;P2;durP2;ratioP2
17598;SDS011;8918;52.092;5.232;2023-04-25T00:01:13;10.57;;;3.83;;
17598;SDS011;8918;52.092;5.232;2023-04-25T00:03:38;12.07;;;3.67;;
17598;SDS011;8918;52.092;5.232;2023-04-25T00:06:04;16.97;;;4.07;;
17598;SDS011;8918;52.092;5.232;2023-04-25T00:08:31;19.03;;;4.13;;
17598;SDS011;8918;52.092;5.232;2023-04-25T00:10:57;14.93;;;4.23;;
17598;SDS011;8918;52.092;5.232;2023-04-25T00:13:23;18.17;;;4.67;;
17598;SDS011;8918;52.092;5.232;2023-04-25T00:15:50;19.60;;;4.80;;
17598;SDS011;8918;52.092;5.232;2023-04-25T00:18:17;13.60;;;4.17;;
17598;SDS011;8918;52.092;5.232;2023-04-25T00:20:44;12.90;;;4.03;;
17598;SDS011;8918;52.092;5.232;2023-04-25T00:23:11;11.93;;;4.30;;
17598;SDS011;8918;52.092;5.232;2023-04-25T00:25:42;9.43;;;3.60;;
17598;SDS011;8918;52.092;5.232;2023-04-25T00:28:12;12.83;;;4.07;;
17598;SDS011;8918;52.092;5.232;2023-04-25T00:30:39;15.83;;;3.83;;
17598;SDS011;8918;52.092;5.232;2023-04-25T00:33:05;10.57;;;3.43;;
17598;SDS011;8918;52.092;5.232;2023-04-25T00:35:31;10.80;;;3.70;;
17598;SDS011;8918;52.092;5.232;2023-04-25T00:37:57;11.90;;;3.70;;
17598;SDS011;8918;52.092;5.232;2023-04-25T00:40:22;14.83;;;4.37;;
17598;SDS011;8918;52.092;5.232;2023-04-25T00:42:49;8.93;;;3.30;;
17598;SDS011;8918;52.092;5.232;2023-04-25T00:45:16;13.10;;;3.67;;
17598;SDS011;8918;52.092;5.232;2023-04-25T00:47:42;15.07;;;4.37;;
17598;SDS011;8918;52.092;5.232;2023-04-25T00:50:10;10.40;;;3.40;;
17598;SDS011;8918;52.092;5.232;2023-04-25T00:52:37;12.73;;;3.67;;
17598;SDS011;8918;52.092;5.232;2023-04-25T00:55:05;12.90;;;4.13;;
17598;SDS011;8918;52.092;5.232;2023-04-25T00:57:31;13.07;;;3.63;;
17598;SDS011;8918;52.092;5.232;2023-04-25T00:59:56;12.10;;;4.10;;
17598;SDS011;8918;52.092;5.232;2023-04-25T01:02:23;12.53;;;3.67;;
17598;SDS011;8918;52.092;5.232;2023-04-25T01:04:50;11.67;;;3.90;;
17598;SDS011;8918;52.092;5.232;2023-04-25T01:07:16;12.03;;;3.60;;
17598;SDS011;8918;52.092;5.232;2023-04-25T01:09:42;12.27;;;3.90;;
17598;SDS011;8918;52.092;5.232;2023-04-25T01:12:07;14.20;;;3.73;;
17598;SDS011;8918;52.092;5.232;2023-04-25T01:14:33;12.80;;;4.50;;
17598;SDS011;8918;52.092;5.232;2023-04-25T01:16:59;10.70;;;4.00;;
17598;SDS011;8918;52.092;5.232;2023-04-25T01:19:24;10.93;;;3.77;;
17598;SDS011;8918;52.092;5.232;2023-04-25T01:21:50;10.73;;;4.00;;
17598;SDS011;8918;52.092;5.232;2023-04-25T01:24:16;12.13;;;3.57;;
17598;SDS011;8918;52.092;5.232;2023-04-25T01:26:42;12.70;;;3.93;;
17598;SDS011;8918;52.092;5.232;2023-04-25T01:29:18;16.73;;;4.37;;
17598;SDS011;8918;52.092;5.232;2023-04-25T01:31:44;10.43;;;3.83;;
17598;SDS011;8918;52.092;5.232;2023-04-25T01:34:11;12.13;;;3.93;;
17598;SDS011;8918;52.092;5.232;2023-04-25T01:36:37;12.50;;;3.67;;
17598;SDS011;8918;52.092;5.232;2023-04-25T01:39:02;13.60;;;4.10;;
17598;SDS011;8918;52.092;5.232;2023-04-25T01:41:28;8.90;;;3.33;;
17598;SDS011;8918;52.092;5.232;2023-04-25T01:43:54;9.33;;;3.47;;
17598;SDS011;8918;52.092;5.232;2023-04-25T01:46:20;11.23;;;3.53;;
17598;SDS011;8918;52.092;5.232;2023-04-25T01:48:46;11.63;;;3.90;;
17598;SDS011;8918;52.092;5.232;2023-04-25T01:51:12;11.07;;;3.90;;
17598;SDS011;8918;52.092;5.232;2023-04-25T01:53:38;12.27;;;3.90;;
17598;SDS011;8918;52.092;5.232;2023-04-25T01:56:04;12.90;;;4.10;;
17598;SDS011;8918;52.092;5.232;2023-04-25T01:58:30;13.80;;;4.03;;
17598;SDS011;8918;52.092;5.232;2023-04-25T02:00:56;13.93;;;4.00;;
17598;SDS011;8918;52.092;5.232;2023-04-25T02:03:22;11.73;;;3.77;;
17598;SDS011;8918;52.092;5.232;2023-04-25T02:05:47;9.83;;;4.67;;
17598;SDS011;8918;52.092;5.232;2023-04-25T02:08:13;12.57;;;3.70;;
17598;SDS011;8918;52.092;5.232;2023-04-25T02:10:39;12.37;;;4.00;;
17598;SDS011;8918;52.092;5.232;2023-04-25T02:13:04;12.23;;;4.27;;
17598;SDS011;8918;52.092;5.232;2023-04-25T02:15:30;13.07;;;4.33;;
17598;SDS011;8918;52.092;5.232;2023-04-25T02:17:56;13.93;;;3.97;;
17598;SDS011;8918;52.092;5.232;2023-04-25T02:20:23;13.67;;;4.00;;
17598;SDS011;8918;52.092;5.232;2023-04-25T02:22:49;12.67;;;4.60;;
17598;SDS011;8918;52.092;5.232;2023-04-25T02:25:15;16.47;;;4.40;;
17598;SDS011;8918;52.092;5.232;2023-04-25T02:27:41;9.80;;;4.00;;
17598;SDS011;8918;52.092;5.232;2023-04-25T02:30:07;14.27;;;4.63;;
17598;SDS011;8918;52.092;5.232;2023-04-25T02:32:33;13.47;;;4.93;;
17598;SDS011;8918;52.092;5.232;2023-04-25T02:34:59;11.67;;;4.10;;
17598;SDS011;8918;52.092;5.232;2023-04-25T02:37:29;13.70;;;4.30;;
17598;SDS011;8918;52.092;5.232;2023-04-25T02:39:58;13.10;;;4.40;;
17598;SDS011;8918;52.092;5.232;2023-04-25T02:42:23;9.93;;;3.97;;
17598;SDS011;8918;52.092;5.232;2023-04-25T02:44:49;13.60;;;4.03;;
17598;SDS011;8918;52.092;5.232;2023-04-25T02:47:15;13.33;;;4.63;;
17598;SDS011;8918;52.092;5.232;2023-04-25T02:49:41;18.73;;;4.47;;
17598;SDS011;8918;52.092;5.232;2023-04-25T02:52:06;10.37;;;4.20;;
17598;SDS011;8918;52.092;5.232;2023-04-25T02:54:32;11.77;;;4.23;;
17598;SDS011;8918;52.092;5.232;2023-04-25T02:56:57;12.73;;;3.90;;
17598;SDS011;8918;52.092;5.232;2023-04-25T02:59:23;10.53;;;4.07;;
17598;SDS011;8918;52.092;5.232;2023-04-25T03:01:49;10.43;;;4.00;;
17598;SDS011;8918;52.092;5.232;2023-04-25T03:04:14;10.33;;;4.13;;
17598;SDS011;8918;52.092;5.232;2023-04-25T03:06:40;12.47;;;4.70;;
17598;SDS011;8918;52.092;5.232;2023-04-25T03:09:05;12.00;;;3.93;;
17598;SDS011;8918;52.092;5.232;2023-04-25T03:11:31;11.93;;;4.10;;
17598;SDS011;8918;52.092;5.232;2023-04-25T03:13:57;19.83;;;4.27;;
17598;SDS011;8918;52.092;5.232;2023-04-25T03:16:22;9.67;;;3.60;;
17598;SDS011;8918;52.092;5.232;2023-04-25T03:18:48;14.40;;;4.10;;
17598;SDS011;8918;52.092;5.232;2023-04-25T03:21:15;11.67;;;3.93;;
17598;SDS011;8918;52.092;5.232;2023-04-25T03:23:41;10.53;;;3.87;;
17598;SDS011;8918;52.092;5.232;2023-04-25T03:26:06;10.97;;;3.97;;
17598;SDS011;8918;52.092;5.232;2023-04-25T03:28:32;13.77;;;4.47;;
17598;SDS011;8918;52.092;5.232;2023-04-25T03:30:57;15.37;;;4.53;;
17598;SDS011;8918;52.092;5.232;2023-04-25T03:33:23;10.57;;;3.50;;
17598;SDS011;8918;52.092;5.232;2023-04-25T03:35:48;13.17;;;3.77;;
17598;SDS011;8918;52.092;5.232;2023-04-25T03:38:15;12.93;;;3.50;;
17598;SDS011;8918;52.092;5.232;2023-04-25T03:40:40;9.67;;;3.23;;
17598;SDS011;8918;52.092;5.232;2023-04-25T03:43:06;6.93;;;2.80;;
17598;SDS011;8918;52.092;5.232;2023-04-25T03:45:32;7.53;;;2.90;;
17598;SDS011;8918;52.092;5.232;2023-04-25T03:47:57;7.90;;;2.83;;
17598;SDS011;8918;52.092;5.232;2023-04-25T03:50:23;8.20;;;2.50;;
17598;SDS011;8918;52.092;5.232;2023-04-25T03:52:49;6.33;;;2.40;;
17598;SDS011;8918;52.092;5.232;2023-04-25T03:55:15;11.40;;;2.97;;
17598;SDS011;8918;52.092;5.232;2023-04-25T03:57:40;10.93;;;3.10;;
17598;SDS011;8918;52.092;5.232;2023-04-25T04:00:06;8.10;;;2.40;;
17598;SDS011;8918;52.092;5.232;2023-04-25T04:02:32;7.73;;;2.50;;
17598;SDS011;8918;52.092;5.232;2023-04-25T04:04:59;9.00;;;2.40;;
17598;SDS011;8918;52.092;5.232;2023-04-25T04:07:25;7.30;;;2.60;;
17598;SDS011;8918;52.092;5.232;2023-04-25T04:09:51;7.00;;;2.20;;
17598;SDS011;8918;52.092;5.232;2023-04-25T04:12:16;9.60;;;2.47;;
17598;SDS011;8918;52.092;5.232;2023-04-25T04:14:42;8.00;;;2.40;;
17598;SDS011;8918;52.092;5.232;2023-04-25T04:17:08;5.63;;;2.10;;
17598;SDS011;8918;52.092;5.232;2023-04-25T04:19:33;9.77;;;2.50;;
17598;SDS011;8918;52.092;5.232;2023-04-25T04:21:59;10.47;;;2.43;;
17598;SDS011;8918;52.092;5.232;2023-04-25T04:24:24;5.83;;;2.50;;
17598;SDS011;8918;52.092;5.232;2023-04-25T04:26:50;6.47;;;2.23;;
17598;SDS011;8918;52.092;5.232;2023-04-25T04:29:17;4.97;;;2.30;;
17598;SDS011;8918;52.092;5.232;2023-04-25T04:31:49;5.97;;;2.33;;
17598;SDS011;8918;52.092;5.232;2023-04-25T04:34:16;5.57;;;2.30;;
17598;SDS011;8918;52.092;5.232;2023-04-25T04:36:42;12.13;;;2.73;;
17598;SDS011;8918;52.092;5.232;2023-04-25T04:39:10;7.63;;;2.23;;
17598;SDS011;8918;52.092;5.232;2023-04-25T04:41:35;7.97;;;2.30;;
17598;SDS011;8918;52.092;5.232;2023-04-25T04:44:01;6.03;;;2.07;;
17598;SDS011;8918;52.092;5.232;2023-04-25T04:46:26;7.50;;;2.20;;
17598;SDS011;8918;52.092;5.232;2023-04-25T04:48:53;7.17;;;2.37;;
17598;SDS011;8918;52.092;5.232;2023-04-25T04:51:18;6.57;;;2.20;;
17598;SDS011;8918;52.092;5.232;2023-04-25T04:53:45;9.80;;;2.50;;
17598;SDS011;8918;52.092;5.232;2023-04-25T04:56:11;5.27;;;2.03;;
17598;SDS011;8918;52.092;5.232;2023-04-25T04:58:36;6.03;;;2.57;;
17598;SDS011;8918;52.092;5.232;2023-04-25T05:01:02;6.57;;;2.13;;
17598;SDS011;8918;52.092;5.232;2023-04-25T05:03:28;7.17;;;2.23;;
17598;SDS011;8918;52.092;5.232;2023-04-25T05:05:53;8.53;;;2.23;;
17598;SDS011;8918;52.092;5.232;2023-04-25T05:08:19;6.63;;;2.20;;
17598;SDS011;8918;52.092;5.232;2023-04-25T05:10:45;8.20;;;2.03;;
17598;SDS011;8918;52.092;5.232;2023-04-25T05:13:11;6.77;;;2.17;;
17598;SDS011;8918;52.092;5.232;2023-04-25T05:15:36;5.97;;;1.80;;
17598;SDS011;8918;52.092;5.232;2023-04-25T05:18:02;5.90;;;2.10;;
17598;SDS011;8918;52.092;5.232;2023-04-25T05:20:28;10.00;;;2.30;;
17598;SDS011;8918;52.092;5.232;2023-04-25T05:22:56;8.87;;;2.20;;
17598;SDS011;8918;52.092;5.232;2023-04-25T05:25:22;6.63;;;2.00;;
17598;SDS011;8918;52.092;5.232;2023-04-25T05:27:47;8.50;;;2.00;;
17598;SDS011;8918;52.092;5.232;2023-04-25T05:30:13;9.23;;;2.10;;
17598;SDS011;8918;52.092;5.232;2023-04-25T05:32:38;5.83;;;1.70;;
17598;SDS011;8918;52.092;5.232;2023-04-25T05:35:05;10.77;;;2.10;;
17598;SDS011;8918;52.092;5.232;2023-04-25T05:37:31;6.00;;;2.00;;
17598;SDS011;8918;52.092;5.232;2023-04-25T05:39:57;4.97;;;1.67;;
17598;SDS011;8918;52.092;5.232;2023-04-25T05:42:23;6.13;;;2.10;;
17598;SDS011;8918;52.092;5.232;2023-04-25T05:44:48;4.80;;;1.93;;
17598;SDS011;8918;52.092;5.232;2023-04-25T05:47:14;5.30;;;1.80;;
17598;SDS011;8918;52.092;5.232;2023-04-25T05:49:40;5.37;;;1.83;;
17598;SDS011;8918;52.092;5.232;2023-04-25T05:52:05;9.20;;;2.23;;
17598;SDS011;8918;52.092;5.232;2023-04-25T05:54:31;7.07;;;1.90;;
17598;SDS011;8918;52.092;5.232;2023-04-25T05:56:56;4.53;;;1.60;;
17598;SDS011;8918;52.092;5.232;2023-04-25T05:59:22;4.67;;;1.53;;
17598;SDS011;8918;52.092;5.232;2023-04-25T06:01:48;6.97;;;1.60;;
17598;SDS011;8918;52.092;5.232;2023-04-25T06:04:13;5.90;;;1.70;;
17598;SDS011;8918;52.092;5.232;2023-04-25T06:06:39;8.17;;;2.17;;
17598;SDS011;8918;52.092;5.232;2023-04-25T06:09:04;6.43;;;1.80;;
17598;SDS011;8918;52.092;5.232;2023-04-25T06:11:30;6.83;;;2.30;;
17598;SDS011;8918;52.092;5.232;2023-04-25T06:13:56;5.97;;;1.77;;
17598;SDS011;8918;52.092;5.232;2023-04-25T06:16:22;6.23;;;1.90;;
17598;SDS011;8918;52.092;5.232;2023-04-25T06:18:47;7.83;;;2.37;;
17598;SDS011;8918;52.092;5.232;2023-04-25T06:21:13;6.27;;;1.93;;
17598;SDS011;8918;52.092;5.232;2023-04-25T06:23:38;11.00;;;2.27;;
17598;SDS011;8918;52.092;5.232;2023-04-25T06:26:04;6.90;;;1.83;;
17598;SDS011;8918;52.092;5.232;2023-04-25T06:28:30;6.70;;;2.20;;
17598;SDS011;8918;52.092;5.232;2023-04-25T06:30:55;6.30;;;1.67;;
17598;SDS011;8918;52.092;5.232;2023-04-25T06:33:21;10.27;;;2.43;;
17598;SDS011;8918;52.092;5.232;2023-04-25T06:35:47;9.40;;;2.20;;
17598;SDS011;8918;52.092;5.232;2023-04-25T06:38:12;7.70;;;2.30;;
17598;SDS011;8918;52.092;5.232;2023-04-25T06:40:38;8.50;;;2.30;;
17598;SDS011;8918;52.092;5.232;2023-04-25T06:43:04;8.73;;;2.27;;
17598;SDS011;8918;52.092;5.232;2023-04-25T06:45:29;9.63;;;2.30;;
17598;SDS011;8918;52.092;5.232;2023-04-25T06:47:55;10.80;;;2.70;;
17598;SDS011;8918;52.092;5.232;2023-04-25T06:50:21;6.80;;;1.80;;
17598;SDS011;8918;52.092;5.232;2023-04-25T06:52:47;7.43;;;1.90;;
17598;SDS011;8918;52.092;5.232;2023-04-25T06:55:12;12.40;;;2.40;;
17598;SDS011;8918;52.092;5.232;2023-04-25T06:57:38;9.47;;;1.93;;
17598;SDS011;8918;52.092;5.232;2023-04-25T07:00:04;10.70;;;2.10;;
17598;SDS011;8918;52.092;5.232;2023-04-25T07:02:34;7.77;;;2.17;;
17598;SDS011;8918;52.092;5.232;2023-04-25T07:05:01;11.83;;;1.93;;
17598;SDS011;8918;52.092;5.232;2023-04-25T07:07:29;7.53;;;1.67;;
17598;SDS011;8918;52.092;5.232;2023-04-25T07:09:55;7.73;;;1.80;;
17598;SDS011;8918;52.092;5.232;2023-04-25T07:12:21;6.83;;;2.10;;
17598;SDS011;8918;52.092;5.232;2023-04-25T07:14:47;9.67;;;2.00;;
17598;SDS011;8918;52.092;5.232;2023-04-25T07:17:12;6.50;;;1.93;;
17598;SDS011;8918;52.092;5.232;2023-04-25T07:19:38;13.57;;;2.10;;
17598;SDS011;8918;52.092;5.232;2023-04-25T07:22:05;4.40;;;1.60;;
17598;SDS011;8918;52.092;5.232;2023-04-25T07:24:31;5.83;;;1.67;;
17598;SDS011;8918;52.092;5.232;2023-04-25T07:26:57;5.87;;;1.50;;
17598;SDS011;8918;52.092;5.232;2023-04-25T07:29:22;8.90;;;2.03;;
17598;SDS011;8918;52.092;5.232;2023-04-25T07:31:48;11.37;;;2.47;;
17598;SDS011;8918;52.092;5.232;2023-04-25T07:34:14;5.63;;;1.87;;
17598;SDS011;8918;52.092;5.232;2023-04-25T07:36:40;6.13;;;2.00;;
17598;SDS011;8918;52.092;5.232;2023-04-25T07:39:06;6.97;;;1.80;;
17598;SDS011;8918;52.092;5.232;2023-04-25T07:41:34;11.37;;;1.97;;
17598;SDS011;8918;52.092;5.232;2023-04-25T07:43:59;8.80;;;1.80;;
17598;SDS011;8918;52.092;5.232;2023-04-25T07:46:25;4.87;;;1.50;;
17598;SDS011;8918;52.092;5.232;2023-04-25T07:48:51;7.70;;;2.00;;
17598;SDS011;8918;52.092;5.232;2023-04-25T07:51:16;10.10;;;2.10;;
17598;SDS011;8918;52.092;5.232;2023-04-25T07:53:44;11.40;;;2.77;;
17598;SDS011;8918;52.092;5.232;2023-04-25T07:56:10;5.83;;;1.70;;
17598;SDS011;8918;52.092;5.232;2023-04-25T07:58:36;6.60;;;2.00;;
17598;SDS011;8918;52.092;5.232;2023-04-25T08:01:02;5.27;;;1.77;;
17598;SDS011;8918;52.092;5.232;2023-04-25T08:03:27;7.53;;;1.80;;
17598;SDS011;8918;52.092;5.232;2023-04-25T08:05:53;8.23;;;1.70;;
17598;SDS011;8918;52.092;5.232;2023-04-25T08:08:18;6.43;;;1.90;;
17598;SDS011;8918;52.092;5.232;2023-04-25T08:10:44;4.83;;;1.40;;
17598;SDS011;8918;52.092;5.232;2023-04-25T08:13:10;7.73;;;1.50;;
17598;SDS011;8918;52.092;5.232;2023-04-25T08:15:35;15.30;;;2.33;;
17598;SDS011;8918;52.092;5.232;2023-04-25T08:18:01;7.10;;;1.57;;
17598;SDS011;8918;52.092;5.232;2023-04-25T08:20:27;7.87;;;1.53;;
17598;SDS011;8918;52.092;5.232;2023-04-25T08:22:53;5.57;;;1.60;;
17598;SDS011;8918;52.092;5.232;2023-04-25T08:25:18;7.53;;;1.73;;
17598;SDS011;8918;52.092;5.232;2023-04-25T08:27:44;7.57;;;1.50;;
17598;SDS011;8918;52.092;5.232;2023-04-25T08:30:10;5.87;;;1.80;;
17598;SDS011;8918;52.092;5.232;2023-04-25T08:32:36;6.17;;;1.73;;
17598;SDS011;8918;52.092;5.232;2023-04-25T08:35:03;6.80;;;1.70;;
17598;SDS011;8918;52.092;5.232;2023-04-25T08:37:29;9.97;;;1.97;;
17598;SDS011;8918;52.092;5.232;2023-04-25T08:39:55;6.60;;;1.50;;
17598;SDS011;8918;52.092;5.232;2023-04-25T08:42:21;5.67;;;1.50;;
17598;SDS011;8918;52.092;5.232;2023-04-25T08:44:48;7.80;;;1.60;;
17598;SDS011;8918;52.092;5.232;2023-04-25T08:47:14;6.67;;;2.03;;
17598;SDS011;8918;52.092;5.232;2023-04-25T08:49:42;6.83;;;1.50;;
17598;SDS011;8918;52.092;5.232;2023-04-25T08:52:10;7.03;;;1.57;;
17598;SDS011;8918;52.092;5.232;2023-04-25T08:54:40;5.97;;;1.67;;
17598;SDS011;8918;52.092;5.232;2023-04-25T08:57:09;6.47;;;1.60;;
17598;SDS011;8918;52.092;5.232;2023-04-25T08:59:35;6.03;;;1.57;;
17598;SDS011;8918;52.092;5.232;2023-04-25T09:02:02;6.20;;;1.63;;
17598;SDS011;8918;52.092;5.232;2023-04-25T09:04:32;6.53;;;1.73;;
17598;SDS011;8918;52.092;5.232;2023-04-25T09:06:57;4.63;;;1.10;;
17598;SDS011;8918;52.092;5.232;2023-04-25T09:09:23;4.13;;;0.90;;
17598;SDS011;8918;52.092;5.232;2023-04-25T09:11:49;4.63;;;1.10;;
17598;SDS011;8918;52.092;5.232;2023-04-25T09:14:16;5.10;;;1.23;;
17598;SDS011;8918;52.092;5.232;2023-04-25T09:19:28;2.97;;;1.10;;
17598;SDS011;8918;52.092;5.232;2023-04-25T09:21:56;4.57;;;1.00;;
17598;SDS011;8918;52.092;5.232;2023-04-25T09:24:33;3.03;;;1.00;;
17598;SDS011;8918;52.092;5.232;2023-04-25T09:27:08;3.67;;;1.40;;
17598;SDS011;8918;52.092;5.232;2023-04-25T09:29:36;3.00;;;1.10;;
17598;SDS011;8918;52.092;5.232;2023-04-25T09:32:13;6.47;;;1.23;;
17598;SDS011;8918;52.092;5.232;2023-04-25T09:34:49;3.87;;;1.13;;
17598;SDS011;8918;52.092;5.232;2023-04-25T09:37:20;5.33;;;1.60;;
17598;SDS011;8918;52.092;5.232;2023-04-25T09:39:51;5.77;;;1.20;;
17598;SDS011;8918;52.092;5.232;2023-04-25T09:42:21;5.10;;;1.40;;
17598;SDS011;8918;52.092;5.232;2023-04-25T09:44:49;7.67;;;1.53;;
17598;SDS011;8918;52.092;5.232;2023-04-25T09:47:17;5.27;;;1.40;;
17598;SDS011;8918;52.092;5.232;2023-04-25T09:49:46;8.90;;;1.67;;
17598;SDS011;8918;52.092;5.232;2023-04-25T09:52:15;4.63;;;1.70;;
17598;SDS011;8918;52.092;5.232;2023-04-25T09:54:48;4.47;;;1.33;;
17598;SDS011;8918;52.092;5.232;2023-04-25T09:57:16;4.33;;;1.30;;
17598;SDS011;8918;52.092;5.232;2023-04-25T09:59:46;6.17;;;1.30;;
17598;SDS011;8918;52.092;5.232;2023-04-25T10:02:14;6.37;;;1.30;;
17598;SDS011;8918;52.092;5.232;2023-04-25T10:04:44;5.13;;;1.33;;
17598;SDS011;8918;52.092;5.232;2023-04-25T10:07:13;4.33;;;1.10;;
17598;SDS011;8918;52.092;5.232;2023-04-25T10:09:40;5.67;;;1.57;;
17598;SDS011;8918;52.092;5.232;2023-04-25T10:12:07;4.73;;;1.37;;
17598;SDS011;8918;52.092;5.232;2023-04-25T10:14:33;3.90;;;1.60;;
17598;SDS011;8918;52.092;5.232;2023-04-25T10:16:59;8.37;;;1.50;;
17598;SDS011;8918;52.092;5.232;2023-04-25T10:19:25;5.57;;;1.43;;
17598;SDS011;8918;52.092;5.232;2023-04-25T10:22:02;10.40;;;1.73;;
17598;SDS011;8918;52.092;5.232;2023-04-25T10:24:47;6.23;;;1.47;;
17598;SDS011;8918;52.092;5.232;2023-04-25T10:27:14;8.17;;;1.27;;
17598;SDS011;8918;52.092;5.232;2023-04-25T10:29:40;6.47;;;1.27;;
17598;SDS011;8918;52.092;5.232;2023-04-25T10:32:08;6.03;;;1.40;;
17598;SDS011;8918;52.092;5.232;2023-04-25T10:34:43;2.40;;;1.20;;
17598;SDS011;8918;52.092;5.232;2023-04-25T10:37:12;3.10;;;1.13;;
17598;SDS011;8918;52.092;5.232;2023-04-25T10:39:39;3.37;;;1.10;;
17598;SDS011;8918;52.092;5.232;2023-04-25T10:42:06;3.63;;;1.73;;
17598;SDS011;8918;52.092;5.232;2023-04-25T10:44:36;2.90;;;1.20;;
17598;SDS011;8918;52.092;5.232;2023-04-25T10:47:03;3.53;;;1.40;;
17598;SDS011;8918;52.092;5.232;2023-04-25T10:49:41;4.50;;;1.23;;
17598;SDS011;8918;52.092;5.232;2023-04-25T10:52:11;4.87;;;1.13;;
17598;SDS011;8918;52.092;5.232;2023-04-25T10:54:46;4.00;;;1.10;;
17598;SDS011;8918;52.092;5.232;2023-04-25T11:02:31;5.60;;;1.40;;
17598;SDS011;8918;52.092;5.232;2023-04-25T11:04:57;3.90;;;1.10;;
17598;SDS011;8918;52.092;5.232;2023-04-25T11:07:28;4.70;;;1.27;;
17598;SDS011;8918;52.092;5.232;2023-04-25T11:10:02;5.77;;;1.33;;
17598;SDS011;8918;52.092;5.232;2023-04-25T11:12:29;4.07;;;1.57;;
17598;SDS011;8918;52.092;5.232;2023-04-25T11:14:59;7.40;;;1.40;;
17598;SDS011;8918;52.092;5.232;2023-04-25T11:17:26;4.10;;;1.60;;
17598;SDS011;8918;52.092;5.232;2023-04-25T11:19:51;5.13;;;1.20;;
17598;SDS011;8918;52.092;5.232;2023-04-25T11:22:18;4.87;;;1.40;;
17598;SDS011;8918;52.092;5.232;2023-04-25T11:24:46;3.87;;;1.10;;
17598;SDS011;8918;52.092;5.232;2023-04-25T11:27:12;3.20;;;1.20;;
17598;SDS011;8918;52.092;5.232;2023-04-25T11:29:38;3.37;;;1.20;;
17598;SDS011;8918;52.092;5.232;2023-04-25T11:32:03;2.97;;;1.03;;
17598;SDS011;8918;52.092;5.232;2023-04-25T11:34:30;4.23;;;1.03;;
17598;SDS011;8918;52.092;5.232;2023-04-25T11:36:57;4.57;;;1.30;;
17598;SDS011;8918;52.092;5.232;2023-04-25T11:39:25;2.97;;;1.08;;
17598;SDS011;8918;52.092;5.232;2023-04-25T11:41:51;5.53;;;1.20;;
17598;SDS011;8918;52.092;5.232;2023-04-25T11:44:18;3.92;;;1.55;;
17598;SDS011;8918;52.092;5.232;2023-04-25T11:46:44;3.92;;;1.23;;
17598;SDS011;8918;52.092;5.232;2023-04-25T11:49:10;4.30;;;1.67;;
17598;SDS011;8918;52.092;5.232;2023-04-25T11:51:43;3.97;;;1.35;;
17598;SDS011;8918;52.092;5.232;2023-04-25T11:54:10;3.75;;;1.13;;
17598;SDS011;8918;52.092;5.232;2023-04-25T11:56:36;5.32;;;1.52;;
17598;SDS011;8918;52.092;5.232;2023-04-25T11:59:05;2.72;;;1.30;;
17598;SDS011;8918;52.092;5.232;2023-04-25T12:01:32;2.92;;;1.02;;
17598;SDS011;8918;52.092;5.232;2023-04-25T12:04:12;2.63;;;1.10;;
17598;SDS011;8918;52.092;5.232;2023-04-25T12:06:40;3.90;;;1.33;;
17598;SDS011;8918;52.092;5.232;2023-04-25T12:09:07;3.45;;;1.17;;
17598;SDS011;8918;52.092;5.232;2023-04-25T12:11:45;1.55;;;0.88;;
17598;SDS011;8918;52.092;5.232;2023-04-25T12:14:20;1.77;;;0.90;;
17598;SDS011;8918;52.092;5.232;2023-04-25T12:16:49;3.72;;;1.00;;
17598;SDS011;8918;52.092;5.232;2023-04-25T12:19:16;3.13;;;1.20;;
17598;SDS011;8918;52.092;5.232;2023-04-25T12:21:43;3.17;;;1.20;;
17598;SDS011;8918;52.092;5.232;2023-04-25T12:24:13;4.93;;;1.30;;
17598;SDS011;8918;52.092;5.232;2023-04-25T12:26:57;3.20;;;1.07;;
17598;SDS011;8918;52.092;5.232;2023-04-25T12:29:27;3.73;;;1.33;;
17598;SDS011;8918;52.092;5.232;2023-04-25T12:31:54;4.73;;;1.27;;
17598;SDS011;8918;52.092;5.232;2023-04-25T12:34:20;7.13;;;1.27;;
17598;SDS011;8918;52.092;5.232;2023-04-25T12:36:46;4.60;;;1.10;;
17598;SDS011;8918;52.092;5.232;2023-04-25T12:41:46;7.20;;;1.57;;
17598;SDS011;8918;52.092;5.232;2023-04-25T12:44:12;2.63;;;1.23;;
17598;SDS011;8918;52.092;5.232;2023-04-25T12:46:38;4.43;;;1.27;;
17598;SDS011;8918;52.092;5.232;2023-04-25T12:49:05;3.47;;;1.13;;
17598;SDS011;8918;52.092;5.232;2023-04-25T12:51:33;3.73;;;1.20;;
17598;SDS011;8918;52.092;5.232;2023-04-25T12:54:02;5.40;;;1.50;;
17598;SDS011;8918;52.092;5.232;2023-04-25T12:56:29;4.70;;;1.13;;
17598;SDS011;8918;52.092;5.232;2023-04-25T12:58:55;3.50;;;1.60;;
17598;SDS011;8918;52.092;5.232;2023-04-25T13:01:22;6.27;;;1.37;;
17598;SDS011;8918;52.092;5.232;2023-04-25T13:03:48;3.73;;;1.40;;
17598;SDS011;8918;52.092;5.232;2023-04-25T13:06:14;4.27;;;1.27;;
17598;SDS011;8918;52.092;5.232;2023-04-25T13:08:40;2.70;;;1.13;;
17598;SDS011;8918;52.092;5.232;2023-04-25T13:11:07;2.87;;;1.30;;
17598;SDS011;8918;52.092;5.232;2023-04-25T13:13:33;4.27;;;1.30;;
17598;SDS011;8918;52.092;5.232;2023-04-25T13:16:02;3.73;;;1.57;;
17598;SDS011;8918;52.092;5.232;2023-04-25T13:18:29;6.37;;;1.40;;
17598;SDS011;8918;52.092;5.232;2023-04-25T13:20:56;3.07;;;1.00;;
17598;SDS011;8918;52.092;5.232;2023-04-25T13:23:22;2.77;;;1.10;;
17598;SDS011;8918;52.092;5.232;2023-04-25T13:25:49;2.93;;;1.27;;
17598;SDS011;8918;52.092;5.232;2023-04-25T13:28:15;4.87;;;1.50;;
17598;SDS011;8918;52.092;5.232;2023-04-25T13:30:41;7.57;;;1.43;;
17598;SDS011;8918;52.092;5.232;2023-04-25T13:33:07;4.20;;;1.37;;
17598;SDS011;8918;52.092;5.232;2023-04-25T13:35:33;4.03;;;1.13;;
17598;SDS011;8918;52.092;5.232;2023-04-25T13:38:00;4.17;;;1.40;;
17598;SDS011;8918;52.092;5.232;2023-04-25T13:40:25;2.80;;;1.20;;
17598;SDS011;8918;52.092;5.232;2023-04-25T13:42:52;4.07;;;1.50;;
17598;SDS011;8918;52.092;5.232;2023-04-25T13:45:18;2.57;;;1.40;;
17598;SDS011;8918;52.092;5.232;2023-04-25T13:47:44;3.63;;;1.30;;
17598;SDS011;8918;52.092;5.232;2023-04-25T13:50:10;6.53;;;1.50;;
17598;SDS011;8918;52.092;5.232;2023-04-25T13:52:36;3.53;;;1.37;;
17598;SDS011;8918;52.092;5.232;2023-04-25T13:55:03;4.07;;;1.27;;
17598;SDS011;8918;52.092;5.232;2023-04-25T13:57:31;3.30;;;1.33;;
17598;SDS011;8918;52.092;5.232;2023-04-25T13:59:57;3.55;;;1.25;;
17598;SDS011;8918;52.092;5.232;2023-04-25T14:02:23;3.83;;;1.20;;
17598;SDS011;8918;52.092;5.232;2023-04-25T14:04:48;4.40;;;1.50;;
17598;SDS011;8918;52.092;5.232;2023-04-25T14:07:14;5.50;;;1.50;;
17598;SDS011;8918;52.092;5.232;2023-04-25T14:09:44;6.43;;;1.65;;
17598;SDS011;8918;52.092;5.232;2023-04-25T14:12:09;5.10;;;1.40;;
17598;SDS011;8918;52.092;5.232;2023-04-25T14:14:36;5.63;;;1.35;;
17598;SDS011;8918;52.092;5.232;2023-04-25T14:17:02;5.63;;;1.60;;
17598;SDS011;8918;52.092;5.232;2023-04-25T14:19:28;4.32;;;1.75;;
17598;SDS011;8918;52.092;5.232;2023-04-25T14:21:54;6.72;;;1.80;;
17598;SDS011;8918;52.092;5.232;2023-04-25T14:24:19;4.63;;;1.50;;
17598;SDS011;8918;52.092;5.232;2023-04-25T14:26:45;5.00;;;1.40;;
17598;SDS011;8918;52.092;5.232;2023-04-25T14:29:11;3.40;;;1.33;;
17598;SDS011;8918;52.092;5.232;2023-04-25T14:31:37;3.90;;;1.57;;
17598;SDS011;8918;52.092;5.232;2023-04-25T14:34:03;6.37;;;1.50;;
17598;SDS011;8918;52.092;5.232;2023-04-25T14:36:29;5.27;;;1.60;;
17598;SDS011;8918;52.092;5.232;2023-04-25T14:38:56;4.97;;;1.57;;
17598;SDS011;8918;52.092;5.232;2023-04-25T14:41:22;5.50;;;1.60;;
17598;SDS011;8918;52.092;5.232;2023-04-25T14:43:48;4.63;;;1.20;;
17598;SDS011;8918;52.092;5.232;2023-04-25T14:46:13;4.93;;;1.63;;
17598;SDS011;8918;52.092;5.232;2023-04-25T14:48:39;5.13;;;1.40;;
17598;SDS011;8918;52.092;5.232;2023-04-25T14:51:05;7.33;;;1.70;;
17598;SDS011;8918;52.092;5.232;2023-04-25T14:53:31;6.20;;;1.50;;
17598;SDS011;8918;52.092;5.232;2023-04-25T14:55:57;4.82;;;1.30;;
17598;SDS011;8918;52.092;5.232;2023-04-25T14:58:23;4.03;;;1.50;;
17598;SDS011;8918;52.092;5.232;2023-04-25T15:00:49;4.00;;;1.52;;
17598;SDS011;8918;52.092;5.232;2023-04-25T15:03:15;5.60;;;1.45;;
17598;SDS011;8918;52.092;5.232;2023-04-25T15:05:41;4.65;;;1.20;;